createdAt,value
2018-11-07T00:02:24.538Z,2.80
2018-11-07T00:04:56.294Z,2.70
2018-11-07T00:07:28.612Z,3.73
2018-11-07T00:09:59.251Z,1.80
2018-11-07T00:12:29.217Z,2.00
2018-11-07T00:14:59.351Z,2.17
2018-11-07T00:17:30.008Z,2.33
2018-11-07T00:20:00.596Z,2.37
2018-11-07T00:22:30.531Z,3.13
2018-11-07T00:25:00.447Z,3.90
2018-11-07T00:27:31.047Z,3.43
2018-11-07T00:30:01.362Z,3.50
2018-11-07T00:32:31.430Z,2.83
2018-11-07T00:35:01.462Z,4.83
2018-11-07T00:37:31.538Z,2.40
2018-11-07T00:40:01.641Z,2.67
2018-11-07T00:42:31.486Z,2.73
2018-11-07T00:45:03.602Z,1.90
2018-11-07T00:47:34.281Z,2.70
2018-11-07T00:50:05.574Z,3.83
2018-11-07T00:52:35.590Z,2.33
2018-11-07T00:55:08.259Z,2.30
2018-11-07T00:57:38.215Z,3.83
2018-11-07T01:00:11.645Z,4.50
2018-11-07T01:02:42.279Z,2.40
2018-11-07T01:05:53.740Z,2.30
2018-11-07T01:08:24.489Z,2.17
2018-11-07T01:10:54.582Z,2.93
2018-11-07T01:13:24.764Z,3.50
2018-11-07T01:15:55.302Z,5.67
2018-11-07T01:18:25.834Z,5.73
2018-11-07T01:20:55.834Z,3.67
2018-11-07T01:23:25.763Z,2.03
2018-11-07T01:25:55.828Z,4.37
2018-11-07T01:28:25.901Z,2.23
2018-11-07T01:30:57.349Z,8.07
2018-11-07T01:33:27.453Z,4.20
2018-11-07T01:35:58.016Z,3.47
2018-11-07T01:38:30.497Z,3.07
2018-11-07T01:41:16.681Z,2.50
2018-11-07T01:43:47.090Z,2.50
2018-11-07T01:46:17.094Z,2.70
2018-11-07T01:48:47.120Z,2.50
2018-11-07T01:51:17.339Z,4.50
2018-11-07T01:53:47.394Z,6.30
2018-11-07T01:56:19.034Z,4.23
2018-11-07T01:58:49.145Z,3.10
2018-11-07T02:01:19.272Z,3.00
2018-11-07T02:03:49.241Z,3.90
2018-11-07T02:06:19.127Z,3.30
2018-11-07T02:08:49.162Z,2.70
2018-11-07T02:11:18.999Z,2.27
2018-11-07T02:13:48.982Z,2.70
2018-11-07T02:16:19.048Z,2.20
2018-11-07T02:18:48.895Z,2.10
2018-11-07T02:21:18.946Z,3.47
2018-11-07T02:23:48.864Z,3.27
2018-11-07T02:26:19.052Z,2.63
2018-11-07T02:28:49.206Z,3.13
2018-11-07T02:31:19.144Z,2.43
2018-11-07T02:33:49.894Z,2.27
2018-11-07T02:36:19.755Z,2.83
2018-11-07T02:38:50.177Z,4.07
2018-11-07T02:41:20.132Z,2.27
2018-11-07T02:43:50.150Z,2.13
2018-11-07T02:46:20.121Z,2.37
2018-11-07T02:48:50.046Z,2.23
2018-11-07T02:51:21.201Z,2.87
2018-11-07T02:53:51.073Z,2.97
2018-11-07T02:56:20.978Z,2.63
2018-11-07T02:58:50.823Z,3.33
2018-11-07T03:01:20.840Z,2.20
2018-11-07T03:03:50.839Z,3.50
2018-11-07T03:06:20.912Z,2.63
2018-11-07T03:08:50.757Z,3.53
2018-11-07T03:11:20.639Z,4.87
2018-11-07T03:13:50.535Z,4.70
2018-11-07T03:16:20.345Z,3.33
2018-11-07T03:18:50.304Z,3.50
2018-11-07T03:21:20.396Z,2.60
2018-11-07T03:23:50.343Z,2.43
2018-11-07T03:26:20.274Z,2.83
2018-11-07T03:28:51.019Z,3.00
2018-11-07T03:31:21.251Z,3.00
2018-11-07T03:33:51.873Z,4.80
2018-11-07T03:36:21.821Z,3.43
2018-11-07T03:38:51.641Z,4.77
2018-11-07T03:41:21.509Z,3.60
2018-11-07T03:43:51.545Z,5.23
2018-11-07T03:46:21.616Z,5.17
2018-11-07T03:48:51.761Z,4.40
2018-11-07T03:51:21.677Z,9.30
2018-11-07T03:53:52.312Z,5.70
2018-11-07T03:56:22.580Z,7.53
2018-11-07T03:58:52.512Z,6.17
2018-11-07T04:01:22.452Z,5.97
2018-11-07T04:03:52.375Z,5.40
2018-11-07T04:06:22.287Z,5.83
2018-11-07T04:08:52.289Z,8.07
2018-11-07T04:11:22.123Z,9.40
2018-11-07T04:13:51.949Z,7.83
2018-11-07T04:16:21.886Z,9.57
2018-11-07T04:18:51.845Z,9.07
2018-11-07T04:21:21.655Z,8.67
2018-11-07T04:24:00.651Z,7.40
2018-11-07T04:26:31.659Z,8.73
2018-11-07T04:29:01.901Z,11.40
2018-11-07T04:31:32.118Z,7.83
2018-11-07T04:34:02.079Z,7.67
2018-11-07T04:36:31.929Z,10.60
2018-11-07T04:39:01.860Z,10.93
2018-11-07T04:41:32.731Z,9.87
2018-11-07T04:44:02.681Z,10.40
2018-11-07T04:46:33.183Z,8.90
2018-11-07T04:49:03.078Z,11.73
2018-11-07T04:51:33.031Z,8.93
2018-11-07T04:54:04.023Z,5.30
2018-11-07T04:56:33.908Z,4.17
2018-11-07T04:59:03.881Z,4.40
2018-11-07T05:01:33.899Z,6.80
2018-11-07T05:04:03.715Z,3.87
2018-11-07T05:06:33.777Z,4.50
2018-11-07T05:09:04.265Z,4.90
2018-11-07T05:11:34.188Z,3.60
2018-11-07T05:14:04.185Z,3.60
2018-11-07T05:16:34.357Z,3.17
2018-11-07T05:19:04.177Z,3.13
2018-11-07T05:21:34.115Z,2.60
2018-11-07T05:24:04.091Z,9.70
2018-11-07T05:26:34.150Z,6.27
2018-11-07T05:29:04.474Z,2.80
2018-11-07T05:31:34.503Z,3.73
2018-11-07T05:34:04.481Z,2.93
2018-11-07T05:36:34.448Z,3.07
2018-11-07T05:39:05.031Z,4.93
2018-11-07T05:41:35.101Z,4.50
2018-11-07T05:44:05.095Z,3.30
2018-11-07T05:46:35.050Z,3.90
2018-11-07T05:49:05.433Z,4.13
2018-11-07T05:51:35.533Z,4.00
2018-11-07T05:54:05.585Z,3.00
2018-11-07T05:56:35.485Z,2.60
2018-11-07T05:59:05.777Z,3.00
2018-11-07T06:01:35.799Z,2.90
2018-11-07T06:04:06.299Z,3.90
2018-11-07T06:06:36.318Z,3.10
2018-11-07T06:09:08.567Z,3.87
2018-11-07T06:11:38.657Z,6.13
2018-11-07T06:14:09.277Z,3.00
2018-11-07T06:16:39.200Z,7.53
2018-11-07T06:19:09.397Z,4.87
2018-11-07T06:21:39.687Z,4.30
2018-11-07T06:24:09.840Z,3.77
2018-11-07T06:26:40.490Z,6.07
2018-11-07T06:29:10.425Z,6.83
2018-11-07T06:31:40.410Z,16.97
2018-11-07T06:34:10.496Z,3.90
2018-11-07T06:36:40.832Z,3.80
2018-11-07T06:39:11.619Z,3.80
2018-11-07T06:41:41.662Z,3.70
2018-11-07T06:44:11.635Z,4.13
2018-11-07T06:46:41.682Z,4.07
2018-11-07T06:49:11.764Z,3.77
2018-11-07T06:51:41.830Z,7.57
2018-11-07T06:54:12.386Z,5.27
2018-11-07T06:56:42.336Z,6.13
2018-11-07T06:59:12.268Z,8.90
2018-11-07T07:01:42.336Z,6.50
2018-11-07T07:04:13.138Z,4.87
2018-11-07T07:06:43.138Z,4.37
2018-11-07T07:09:13.195Z,5.83
2018-11-07T07:11:43.840Z,5.47
2018-11-07T07:14:13.756Z,7.20
2018-11-07T07:16:43.642Z,3.70
2018-11-07T07:19:13.977Z,5.33
2018-11-07T07:21:44.038Z,8.33
2018-11-07T07:24:14.076Z,3.90
2018-11-07T07:26:43.894Z,4.27
2018-11-07T07:29:14.894Z,4.37
2018-11-07T07:31:44.745Z,4.00
2018-11-07T07:34:15.348Z,4.30
2018-11-07T07:36:45.323Z,7.50
2018-11-07T07:39:15.866Z,3.93
2018-11-07T07:41:45.696Z,4.27
2018-11-07T07:44:16.020Z,3.87
2018-11-07T07:46:46.102Z,6.87
2018-11-07T07:49:15.966Z,4.70
2018-11-07T07:51:45.957Z,4.00
2018-11-07T07:54:15.781Z,3.70
2018-11-07T07:56:45.675Z,3.93
2018-11-07T07:59:15.684Z,4.17
2018-11-07T08:01:45.584Z,5.33
2018-11-07T08:04:15.466Z,4.73
2018-11-07T08:06:45.516Z,7.23
2018-11-07T08:09:15.451Z,8.63
2018-11-07T08:11:45.319Z,6.03
2018-11-07T08:14:15.747Z,7.70
2018-11-07T08:16:45.567Z,7.17
2018-11-07T08:19:16.340Z,8.93
2018-11-07T08:21:46.153Z,13.10
2018-11-07T08:24:15.983Z,6.33
2018-11-07T08:26:45.783Z,5.93
2018-11-07T08:29:15.682Z,8.73
2018-11-07T08:31:46.234Z,7.07
2018-11-07T08:34:16.227Z,5.53
2018-11-07T08:36:45.953Z,6.33
2018-11-07T08:39:15.713Z,8.93
2018-11-07T08:41:45.481Z,4.83
2018-11-07T08:44:15.616Z,7.97
2018-11-07T08:46:45.995Z,4.50
2018-11-07T08:49:16.783Z,4.50
2018-11-07T08:51:46.666Z,6.13
2018-11-07T08:54:16.645Z,6.17
2018-11-07T08:56:46.477Z,5.50
2018-11-07T08:59:16.295Z,5.97
2018-11-07T09:01:46.178Z,8.47
2018-11-07T09:04:16.099Z,9.83
2018-11-07T09:06:45.920Z,13.97
2018-11-07T09:09:16.019Z,16.40
2018-11-07T09:11:46.796Z,9.77
2018-11-07T09:14:16.588Z,13.70
2018-11-07T09:16:46.435Z,11.07
2018-11-07T09:19:16.909Z,11.13
2018-11-07T09:21:46.839Z,8.17
2018-11-07T09:24:16.965Z,9.00
2018-11-07T09:26:47.067Z,13.07
2018-11-07T09:29:17.028Z,12.47
2018-11-07T09:31:46.975Z,13.90
2018-11-07T09:34:16.856Z,11.30
2018-11-07T09:36:46.994Z,14.73
2018-11-07T09:39:16.901Z,14.17
2018-11-07T09:41:47.677Z,12.47
2018-11-07T09:44:17.774Z,13.37
2018-11-07T09:46:47.655Z,14.23
2018-11-07T09:49:17.581Z,13.07
2018-11-07T09:51:47.366Z,13.90
2018-11-07T09:54:17.429Z,11.90
2018-11-07T09:56:47.465Z,13.20
2018-11-07T09:59:17.406Z,11.07
2018-11-07T10:01:47.622Z,12.33
2018-11-07T10:04:17.612Z,11.90
2018-11-07T10:06:47.460Z,12.10
2018-11-07T10:09:17.874Z,14.93
2018-11-07T10:11:48.603Z,12.43
2018-11-07T10:14:18.428Z,10.97
2018-11-07T10:16:48.307Z,13.10
2018-11-07T10:19:18.184Z,11.37
2018-11-07T10:21:47.994Z,10.57
2018-11-07T10:24:17.903Z,13.77
2018-11-07T10:26:47.749Z,10.40
2018-11-07T10:29:18.060Z,10.73
2018-11-07T10:31:47.780Z,11.77
2018-11-07T10:34:18.311Z,9.33
2018-11-07T10:36:48.138Z,8.57
2018-11-07T10:39:18.063Z,10.40
2018-11-07T10:41:48.620Z,9.90
2018-11-07T10:44:18.520Z,9.07
2018-11-07T10:46:48.521Z,9.83
2018-11-07T10:49:18.392Z,9.87
2018-11-07T10:51:48.273Z,9.53
2018-11-07T10:54:18.323Z,10.57
2018-11-07T10:56:48.348Z,9.53
2018-11-07T10:59:18.799Z,9.53
2018-11-07T11:01:53.773Z,8.93
2018-11-07T11:04:23.918Z,9.37
2018-11-07T11:06:53.792Z,11.90
2018-11-07T11:09:23.688Z,9.47
2018-11-07T11:11:53.570Z,9.33
2018-11-07T11:14:24.038Z,8.47
2018-11-07T11:16:54.090Z,9.00
2018-11-07T11:19:24.030Z,10.80
2018-11-07T11:21:53.910Z,10.13
2018-11-07T11:24:23.816Z,8.80
2018-11-07T11:26:53.992Z,9.07
2018-11-07T11:29:24.162Z,9.37
2018-11-07T11:31:54.162Z,10.23
2018-11-07T11:34:24.262Z,10.20
2018-11-07T11:36:54.485Z,10.23
2018-11-07T11:39:24.333Z,8.57
2018-11-07T11:41:54.212Z,8.83
2018-11-07T11:44:24.092Z,9.80
2018-11-07T11:46:54.090Z,8.97
2018-11-07T11:49:24.630Z,8.53
2018-11-07T11:51:54.510Z,11.57
2018-11-07T11:54:24.338Z,9.70
2018-11-07T11:56:55.326Z,9.57
2018-11-07T11:59:25.636Z,10.47
2018-11-07T12:01:55.606Z,9.77
2018-11-07T12:04:25.502Z,9.33
2018-11-07T12:06:55.288Z,10.70
2018-11-07T12:09:25.139Z,13.13
2018-11-07T12:11:55.809Z,10.50
2018-11-07T12:14:25.852Z,10.20
2018-11-07T12:16:55.756Z,8.77
2018-11-07T12:19:25.604Z,10.27
2018-11-07T12:21:55.438Z,9.47
2018-11-07T12:24:25.382Z,9.83
2018-11-07T12:26:56.004Z,11.40
2018-11-07T12:29:26.003Z,9.00
2018-11-07T12:31:55.990Z,9.10
2018-11-07T12:34:25.934Z,9.30
2018-11-07T12:36:56.628Z,8.77
2018-11-07T12:39:26.536Z,8.33
2018-11-07T12:41:56.609Z,8.30
2018-11-07T12:44:26.472Z,8.90
2018-11-07T12:46:56.348Z,8.80
2018-11-07T12:49:26.837Z,7.77
2018-11-07T12:51:56.727Z,7.17
2018-11-07T12:54:26.634Z,7.33
2018-11-07T12:56:56.632Z,9.93
2018-11-07T12:59:26.645Z,7.80
2018-11-07T13:01:57.407Z,7.70
2018-11-07T13:04:27.723Z,8.03
2018-11-07T13:06:57.797Z,8.63
2018-11-07T13:09:27.736Z,10.43
2018-11-07T13:11:58.526Z,9.93
2018-11-07T13:14:28.335Z,10.90
2018-11-07T13:16:58.802Z,11.00
2018-11-07T13:19:28.741Z,10.77
2018-11-07T13:21:58.682Z,11.43
2018-11-07T13:24:29.225Z,11.03
2018-11-07T13:26:59.247Z,13.20
2018-11-07T13:29:29.153Z,12.03
2018-11-07T13:31:58.989Z,10.87
2018-11-07T13:34:29.542Z,12.80
2018-11-07T13:36:59.764Z,13.37
2018-11-07T13:39:30.526Z,12.10
2018-11-07T13:42:01.144Z,12.70
2018-11-07T13:44:30.977Z,10.87
2018-11-07T13:47:00.873Z,9.93
2018-11-07T13:49:31.475Z,9.10
2018-11-07T13:52:01.327Z,9.27
2018-11-07T13:54:31.101Z,8.23
2018-11-07T13:57:00.960Z,7.73
2018-11-07T13:59:31.003Z,8.93
2018-11-07T14:02:01.115Z,7.10
2018-11-07T14:04:31.391Z,7.10
2018-11-07T14:07:01.265Z,7.17
2018-11-07T14:09:31.220Z,7.97
2018-11-07T14:12:01.229Z,6.07
2018-11-07T14:14:31.301Z,5.97
2018-11-07T14:17:01.178Z,5.93
2018-11-07T14:19:31.135Z,5.83
2018-11-07T14:22:00.980Z,13.53
2018-11-07T14:24:30.901Z,6.80
2018-11-07T14:27:01.022Z,8.87
2018-11-07T14:29:31.001Z,7.00
2018-11-07T14:32:02.073Z,6.97
2018-11-07T14:34:32.026Z,5.90
2018-11-07T14:37:01.884Z,8.97
2018-11-07T14:39:31.742Z,8.00
2018-11-07T14:42:01.677Z,11.23
2018-11-07T14:44:31.600Z,10.70
2018-11-07T14:47:01.567Z,7.80
2018-11-07T14:49:31.587Z,7.30
2018-11-07T14:52:01.451Z,9.53
2018-11-07T14:54:31.306Z,8.03
2018-11-07T14:57:01.178Z,8.83
2018-11-07T14:59:31.052Z,8.40
2018-11-07T15:02:00.942Z,9.67
2018-11-07T15:04:30.850Z,14.27
2018-11-07T15:07:00.842Z,8.70
2018-11-07T15:09:31.238Z,11.37
2018-11-07T15:12:01.023Z,10.20
2018-11-07T15:14:30.958Z,10.40
2018-11-07T15:17:00.931Z,11.17
2018-11-07T15:19:31.115Z,7.57
2018-11-07T15:22:01.700Z,6.80
2018-11-07T15:24:31.694Z,10.33
2018-11-07T15:27:01.777Z,7.13
2018-11-07T15:29:31.754Z,8.77
2018-11-07T15:32:01.717Z,7.30
2018-11-07T15:34:31.640Z,8.77
2018-11-07T15:37:01.484Z,11.70
2018-11-07T15:39:31.304Z,9.20
2018-11-07T15:42:01.212Z,9.53
2018-11-07T15:44:31.048Z,7.83
2018-11-07T15:47:00.904Z,8.20
2018-11-07T15:49:30.808Z,8.80
2018-11-07T15:52:00.969Z,9.00
2018-11-07T15:54:30.884Z,7.43
2018-11-07T15:57:00.924Z,9.40
2018-11-07T15:59:30.860Z,13.30
2018-11-07T16:02:00.702Z,11.60
2018-11-07T16:04:30.788Z,10.17
2018-11-07T16:07:00.588Z,10.47
2018-11-07T16:09:30.462Z,9.53
2018-11-07T16:12:00.290Z,7.17
2018-11-07T16:14:30.160Z,14.57
2018-11-07T16:17:00.141Z,8.27
2018-11-07T16:19:30.073Z,9.77
2018-11-07T16:22:00.384Z,8.70
2018-11-07T16:24:30.324Z,9.20
2018-11-07T16:27:00.117Z,7.93
2018-11-07T16:29:30.022Z,10.40
2018-11-07T16:31:59.860Z,8.00
2018-11-07T16:34:29.656Z,10.23
2018-11-07T16:36:59.587Z,8.57
2018-11-07T16:39:29.602Z,10.67
2018-11-07T16:41:59.851Z,11.10
2018-11-07T16:44:30.513Z,8.53
2018-11-07T16:47:00.489Z,9.33
2018-11-07T16:49:31.290Z,10.10
2018-11-07T16:52:01.086Z,9.50
2018-11-07T16:54:30.996Z,8.83
2018-11-07T16:57:01.019Z,9.80
2018-11-07T16:59:30.842Z,10.07
2018-11-07T17:02:00.658Z,9.67
2018-11-07T17:04:30.621Z,10.60
2018-11-07T17:07:00.680Z,8.07
2018-11-07T17:09:31.492Z,10.20
2018-11-07T17:12:01.461Z,8.43
2018-11-07T17:14:31.318Z,9.50
2018-11-07T17:17:01.178Z,9.60
2018-11-07T17:19:31.171Z,11.33
2018-11-07T17:22:00.993Z,9.47
2018-11-07T17:24:31.209Z,8.77
2018-11-07T17:27:01.141Z,10.40
2018-11-07T17:29:31.047Z,9.93
2018-11-07T17:32:02.809Z,8.30
2018-11-07T17:34:32.792Z,8.47
2018-11-07T17:37:02.614Z,8.20
2018-11-07T17:39:32.687Z,8.77
2018-11-07T17:42:02.714Z,14.30
2018-11-07T17:44:32.639Z,9.97
2018-11-07T17:47:02.491Z,11.27
2018-11-07T17:49:32.410Z,8.63
2018-11-07T17:52:02.468Z,8.27
2018-11-07T17:54:32.828Z,11.53
2018-11-07T17:57:02.624Z,10.17
2018-11-07T17:59:32.486Z,8.60
2018-11-07T18:02:02.993Z,9.50
2018-11-07T18:04:33.678Z,8.53
2018-11-07T18:07:03.579Z,7.90
2018-11-07T18:09:34.336Z,8.60
2018-11-07T18:12:04.369Z,9.57
2018-11-07T18:14:34.249Z,10.27
2018-11-07T18:17:04.541Z,9.63
2018-11-07T18:19:34.448Z,8.63
2018-11-07T18:22:04.586Z,8.10
2018-11-07T18:24:34.828Z,10.33
2018-11-07T18:27:04.659Z,8.60
2018-11-07T18:29:34.722Z,11.07
2018-11-07T18:32:04.789Z,10.20
2018-11-07T18:34:36.551Z,9.87
2018-11-07T18:37:07.699Z,13.00
2018-11-07T18:39:38.040Z,8.90
2018-11-07T18:42:08.202Z,9.57
2018-11-07T18:44:39.166Z,11.57
2018-11-07T18:47:10.197Z,9.83
2018-11-07T18:49:40.238Z,8.77
2018-11-07T18:52:10.282Z,9.40
2018-11-07T18:54:40.162Z,9.40
2018-11-07T18:57:10.015Z,8.57
2018-11-07T18:59:39.961Z,8.73
2018-11-07T19:02:09.776Z,6.90
2018-11-07T19:04:39.630Z,9.87
2018-11-07T19:07:09.492Z,10.10
2018-11-07T19:09:40.118Z,9.10
2018-11-07T19:12:09.935Z,7.90
2018-11-07T19:14:39.799Z,7.43
2018-11-07T19:17:09.599Z,9.67
2018-11-07T19:19:39.488Z,8.07
2018-11-07T19:22:09.413Z,10.30
2018-11-07T19:24:39.497Z,9.30
2018-11-07T19:27:09.275Z,8.23
2018-11-07T19:29:39.398Z,11.37
2018-11-07T19:32:09.399Z,8.90
2018-11-07T19:34:39.895Z,8.83
2018-11-07T19:37:11.221Z,7.93
2018-11-07T19:39:40.997Z,8.37
2018-11-07T19:42:12.301Z,7.93
2018-11-07T19:44:42.177Z,10.27
2018-11-07T19:47:11.985Z,9.40
2018-11-07T19:49:41.873Z,10.20
2018-11-07T19:52:11.637Z,11.67
2018-11-07T19:54:41.492Z,7.90
2018-11-07T19:57:12.627Z,7.73
2018-11-07T19:59:42.565Z,9.63
2018-11-07T20:02:12.519Z,7.97
2018-11-07T20:04:42.403Z,7.80
2018-11-07T20:07:12.227Z,9.67
2018-11-07T20:09:42.096Z,7.83
2018-11-07T20:12:12.043Z,8.23
2018-11-07T20:14:41.941Z,9.50
2018-11-07T20:17:11.925Z,10.63
2018-11-07T20:19:41.899Z,9.67
2018-11-07T20:22:11.737Z,9.83
2018-11-07T20:24:41.540Z,12.40
2018-11-07T20:27:11.302Z,11.80
2018-11-07T20:29:41.175Z,9.63
2018-11-07T20:32:10.935Z,16.03
2018-11-07T20:34:40.743Z,9.70
2018-11-07T20:37:10.767Z,12.13
2018-11-07T20:39:40.738Z,11.13
2018-11-07T20:42:11.103Z,10.13
2018-11-07T20:44:41.371Z,9.13
2018-11-07T20:47:11.571Z,8.93
2018-11-07T20:49:41.689Z,9.83
2018-11-07T20:52:11.596Z,16.23
2018-11-07T20:54:41.517Z,11.87
2018-11-07T20:57:12.167Z,10.83
2018-11-07T20:59:42.120Z,10.40
2018-11-07T21:02:11.919Z,11.17
2018-11-07T21:04:42.064Z,11.40
2018-11-07T21:07:11.911Z,12.80
2018-11-07T21:09:41.712Z,10.87
2018-11-07T21:12:11.559Z,11.40
2018-11-07T21:14:41.445Z,11.53
2018-11-07T21:17:11.632Z,12.20
2018-11-07T21:19:41.497Z,9.50
2018-11-07T21:22:12.608Z,9.90
2018-11-07T21:24:42.435Z,14.93
2018-11-07T21:27:12.348Z,11.97
2018-11-07T21:29:42.283Z,11.23
2018-11-07T21:32:12.106Z,11.40
2018-11-07T21:34:42.216Z,12.70
2018-11-07T21:37:12.340Z,10.53
2018-11-07T21:39:42.183Z,11.47
2018-11-07T21:42:12.070Z,14.20
2018-11-07T21:44:41.824Z,11.27
2018-11-07T21:47:11.624Z,15.33
2018-11-07T21:49:41.807Z,11.13
2018-11-07T21:52:11.624Z,13.50
2018-11-07T21:54:42.101Z,11.93
2018-11-07T21:57:12.235Z,12.77
2018-11-07T21:59:42.094Z,11.07
2018-11-07T22:02:12.548Z,11.33
2018-11-07T22:04:44.298Z,14.43
2018-11-07T22:07:14.222Z,10.47
2018-11-07T22:09:44.266Z,10.87
2018-11-07T22:12:14.258Z,11.70
2018-11-07T22:14:45.203Z,11.70
2018-11-07T22:17:15.045Z,11.63
2018-11-07T22:19:44.916Z,17.07
2018-11-07T22:22:14.800Z,12.80
2018-11-07T22:24:44.732Z,13.47
2018-11-07T22:27:15.366Z,15.73
2018-11-07T22:29:45.232Z,13.27
2018-11-07T22:32:15.122Z,13.87
2018-11-07T22:34:45.054Z,13.50
2018-11-07T22:37:14.938Z,16.07
2018-11-07T22:39:45.703Z,18.23
2018-11-07T22:42:15.615Z,13.77
2018-11-07T22:44:45.900Z,18.07
2018-11-07T22:47:15.734Z,16.40
2018-11-07T22:49:45.581Z,12.87
2018-11-07T22:52:15.496Z,14.10
2018-11-07T22:54:45.595Z,13.80
2018-11-07T22:57:15.495Z,15.23
2018-11-07T22:59:45.517Z,13.00
2018-11-07T23:02:15.337Z,12.60
2018-11-07T23:04:45.259Z,13.50
2018-11-07T23:07:15.060Z,14.83
2018-11-07T23:09:44.942Z,16.07
2018-11-07T23:12:14.813Z,14.33
2018-11-07T23:14:44.745Z,15.50
2018-11-07T23:17:14.725Z,14.43
2018-11-07T23:19:44.748Z,14.97
2018-11-07T23:22:14.582Z,17.27
2018-11-07T23:24:44.522Z,17.33
2018-11-07T23:27:14.437Z,17.67
2018-11-07T23:29:44.439Z,15.97
2018-11-07T23:32:14.359Z,21.80
2018-11-07T23:34:44.281Z,21.43
2018-11-07T23:37:14.399Z,15.93
2018-11-07T23:39:44.327Z,16.53
2018-11-07T23:42:14.239Z,19.13
2018-11-07T23:44:44.083Z,18.10
2018-11-07T23:47:14.054Z,13.27
2018-11-07T23:49:44.161Z,12.97
2018-11-07T23:52:18.313Z,17.87
2018-11-07T23:54:48.340Z,12.77
2018-11-07T23:57:18.608Z,13.10
2018-11-07T23:59:48.719Z,14.63
